Página principal
METAR-TAF:

METAR-TAF

Aeroportos :

Aeroporto Internacional Ibrahim Nasir

Malé, Maldivas

latitude: 04-12N, longitude: 073-32E, altura: 2 m

Observação actual do tempo

O boletim foi feito há 48 minutos, às 10:00 UTC
Vento 4 kt de oes-noroeste
Temperatura 30°C
Humidade 75%
Pressão 1011 hPa
Visibilidade: 4000 m
Poucas nuvensa uma altura de 1800 ft
Nuvens fragmentadasa uma altura de 27000 ft
bruma

METAR: VRMM 121000Z 30004KT 4000 HZ FEW018 BKN270 30/25 Q1011 NOSIG

Hora: 15:48 (10:48 UTC)

Previsão

O boletim foi feito há 5 horas e 48 minutos, às 05:00 UTC
Previsão válida de 12 às 06 UTC a 13 às 12 UTC
Vento 7 kt de oes-noroeste
Visibilidade: 5000 m
Poucas nuvensa uma altura de 1800 ft
bruma
Temporariamente
de 12 às 09 UTC a 12 às 15 UTC
Visibilidade: 3000 m
Poucas nuvensa uma altura de 1800 ft, Cumulonimbus.
bruma

TAF: VRMM 120500Z 1206/1312 29007KT 5000 HZ FEW018 TEMPO 1209/1215 3000 HZ FEW018CB

Observações e previsões do tempo de mais de 4000 aeroportos (mensagens METAR e TAF).

As estações disponíveis são os pontos amarelos e vermelhos sobre o mapa.

Mova o rato sobre o mapa para ver o nome da estação.

Depois clique no ponto para visualizar as observações e previsões meteorológicas.

Para alterar o mapa : clique nos botões verdes com uma cruz preta para aumentar o zoom; no botão verde com uma pitada de zoom; ou nas setas verdes para mapas adjacentes.


METAR-TAF: